Terminal Aerodrome Forecast
Issued by NWS

Home | Current Version | Previous Version | Text Only | Print | Product List | Glossary On
Versions: 1 2 3 4 5 6 7 8 9 10 11 12 13 14 15 16 17
000
FTUS45 KTFX 011100
TAFCTB
TAF
KCTB 011139Z 0112/0212 29008KT P6SM SCT090 BKN150
     FM011600 26020G30KT P6SM SCT120
      TEMPO 0119/0122 27028G38KT
     FM020100 26015G22KT P6SM SCT150
     FM020700 27017KT P6SM SCT080 BKN120
     FM020900 33014KT P6SM VCSH SCT020 BKN040
      TEMPO 0210/0212 35015G25KT 1SM -SN BR BKN010=

USA.gov is the U.S. government's official web portal to all federal, state and local government web resources and services.